sensor_id;sensor_type;location;lat;lon;timestamp;pressure;altitude;pressure_sealevel;temperature;humidity
45050;BME280;61798;48.048;-1.928;2024-02-26T00:01:24;96958.75;;;5.81;100.00
45050;BME280;61798;48.048;-1.928;2024-02-26T00:03:30;96961.94;;;5.83;100.00
45050;BME280;61798;48.048;-1.928;2024-02-26T00:05:39;96964.84;;;5.81;100.00
45050;BME280;61798;48.048;-1.928;2024-02-26T00:07:45;96952.66;;;5.80;100.00
45050;BME280;61798;48.048;-1.928;2024-02-26T00:09:53;96959.28;;;5.83;100.00
45050;BME280;61798;48.048;-1.928;2024-02-26T00:12:00;96949.94;;;5.75;100.00
45050;BME280;61798;48.048;-1.928;2024-02-26T00:14:07;96948.53;;;5.67;100.00
45050;BME280;61798;48.048;-1.928;2024-02-26T00:16:14;96961.16;;;5.82;100.00
45050;BME280;61798;48.048;-1.928;2024-02-26T00:18:21;96953.34;;;5.70;100.00
45050;BME280;61798;48.048;-1.928;2024-02-26T00:20:28;96963.75;;;5.77;100.00
45050;BME280;61798;48.048;-1.928;2024-02-26T00:22:35;96971.47;;;5.79;100.00
45050;BME280;61798;48.048;-1.928;2024-02-26T00:24:43;96969.88;;;5.78;100.00
45050;BME280;61798;48.048;-1.928;2024-02-26T00:26:51;96970.13;;;5.76;100.00
45050;BME280;61798;48.048;-1.928;2024-02-26T00:29:01;96957.84;;;5.70;100.00
45050;BME280;61798;48.048;-1.928;2024-02-26T00:31:08;96956.72;;;5.60;100.00
45050;BME280;61798;48.048;-1.928;2024-02-26T00:33:17;96979.16;;;5.75;100.00
45050;BME280;61798;48.048;-1.928;2024-02-26T00:35:24;96983.66;;;5.75;100.00
45050;BME280;61798;48.048;-1.928;2024-02-26T00:37:31;96954.56;;;5.57;100.00
45050;BME280;61798;48.048;-1.928;2024-02-26T00:39:38;96987.13;;;5.75;100.00
45050;BME280;61798;48.048;-1.928;2024-02-26T00:41:47;96984.94;;;5.67;100.00
45050;BME280;61798;48.048;-1.928;2024-02-26T00:43:54;96983.59;;;5.64;100.00
45050;BME280;61798;48.048;-1.928;2024-02-26T00:46:01;96987.59;;;5.67;100.00
45050;BME280;61798;48.048;-1.928;2024-02-26T00:48:08;96998.72;;;5.64;100.00
45050;BME280;61798;48.048;-1.928;2024-02-26T00:50:16;96984.88;;;5.61;100.00
45050;BME280;61798;48.048;-1.928;2024-02-26T00:52:23;96985.19;;;5.65;100.00
45050;BME280;61798;48.048;-1.928;2024-02-26T00:54:30;96996.56;;;5.60;100.00
45050;BME280;61798;48.048;-1.928;2024-02-26T00:56:37;97001.38;;;5.64;100.00
45050;BME280;61798;48.048;-1.928;2024-02-26T00:58:44;96994.38;;;5.52;100.00
45050;BME280;61798;48.048;-1.928;2024-02-26T01:00:51;96989.94;;;5.63;100.00
45050;BME280;61798;48.048;-1.928;2024-02-26T01:02:58;96999.75;;;5.63;100.00
45050;BME280;61798;48.048;-1.928;2024-02-26T01:05:08;97000.63;;;5.68;100.00
45050;BME280;61798;48.048;-1.928;2024-02-26T01:07:19;96999.22;;;5.60;100.00
45050;BME280;61798;48.048;-1.928;2024-02-26T01:09:27;97006.19;;;5.67;100.00
45050;BME280;61798;48.048;-1.928;2024-02-26T01:11:34;96998.66;;;5.58;100.00
45050;BME280;61798;48.048;-1.928;2024-02-26T01:13:41;97012.50;;;5.60;100.00
45050;BME280;61798;48.048;-1.928;2024-02-26T01:15:48;97009.63;;;5.67;100.00
45050;BME280;61798;48.048;-1.928;2024-02-26T01:17:57;97025.66;;;5.78;100.00
45050;BME280;61798;48.048;-1.928;2024-02-26T01:20:05;97023.28;;;5.76;100.00
45050;BME280;61798;48.048;-1.928;2024-02-26T01:22:12;97029.13;;;5.78;100.00
45050;BME280;61798;48.048;-1.928;2024-02-26T01:24:19;97022.97;;;5.73;100.00
45050;BME280;61798;48.048;-1.928;2024-02-26T01:26:25;97029.69;;;5.80;100.00
45050;BME280;61798;48.048;-1.928;2024-02-26T01:28:34;97036.66;;;5.87;100.00
45050;BME280;61798;48.048;-1.928;2024-02-26T01:30:42;97035.81;;;5.81;100.00
45050;BME280;61798;48.048;-1.928;2024-02-26T01:32:49;97034.44;;;5.78;100.00
45050;BME280;61798;48.048;-1.928;2024-02-26T01:34:56;97045.06;;;5.78;100.00
45050;BME280;61798;48.048;-1.928;2024-02-26T01:37:04;97041.38;;;5.79;100.00
45050;BME280;61798;48.048;-1.928;2024-02-26T01:39:11;97036.88;;;5.80;100.00
45050;BME280;61798;48.048;-1.928;2024-02-26T01:41:21;97042.69;;;5.77;100.00
45050;BME280;61798;48.048;-1.928;2024-02-26T01:43:28;97042.38;;;5.73;100.00
45050;BME280;61798;48.048;-1.928;2024-02-26T01:45:35;97065.34;;;5.85;100.00
45050;BME280;61798;48.048;-1.928;2024-02-26T01:47:42;97040.41;;;5.63;100.00
45050;BME280;61798;48.048;-1.928;2024-02-26T01:49:49;97068.25;;;5.83;100.00
45050;BME280;61798;48.048;-1.928;2024-02-26T01:51:56;97066.94;;;5.86;100.00
45050;BME280;61798;48.048;-1.928;2024-02-26T01:54:06;97064.78;;;5.82;100.00
45050;BME280;61798;48.048;-1.928;2024-02-26T01:56:16;97064.25;;;5.80;100.00
45050;BME280;61798;48.048;-1.928;2024-02-26T01:58:23;97072.25;;;5.86;100.00
45050;BME280;61798;48.048;-1.928;2024-02-26T02:00:31;97071.19;;;5.87;100.00
45050;BME280;61798;48.048;-1.928;2024-02-26T02:02:38;97078.72;;;5.95;100.00
45050;BME280;61798;48.048;-1.928;2024-02-26T02:04:48;96906.50;;;5.92;100.00
45050;BME280;61798;48.048;-1.928;2024-02-26T02:06:57;96910.78;;;5.98;100.00
45050;BME280;61798;48.048;-1.928;2024-02-26T02:09:04;96909.16;;;5.97;100.00
45050;BME280;61798;48.048;-1.928;2024-02-26T02:11:13;96911.81;;;5.97;100.00
45050;BME280;61798;48.048;-1.928;2024-02-26T02:13:21;96885.41;;;5.80;100.00
45050;BME280;61798;48.048;-1.928;2024-02-26T02:15:29;96882.97;;;5.73;100.00
45050;BME280;61798;48.048;-1.928;2024-02-26T02:17:36;96905.34;;;5.82;100.00
45050;BME280;61798;48.048;-1.928;2024-02-26T02:19:43;96913.66;;;5.91;100.00
45050;BME280;61798;48.048;-1.928;2024-02-26T02:21:50;96921.91;;;5.95;100.00
45050;BME280;61798;48.048;-1.928;2024-02-26T02:23:57;96909.09;;;5.87;100.00
45050;BME280;61798;48.048;-1.928;2024-02-26T02:26:06;96913.69;;;5.97;100.00
45050;BME280;61798;48.048;-1.928;2024-02-26T02:28:13;96908.34;;;5.91;100.00
45050;BME280;61798;48.048;-1.928;2024-02-26T02:30:25;96922.44;;;5.97;100.00
45050;BME280;61798;48.048;-1.928;2024-02-26T02:32:34;96918.97;;;5.91;100.00
45050;BME280;61798;48.048;-1.928;2024-02-26T02:34:41;96913.91;;;5.90;100.00
45050;BME280;61798;48.048;-1.928;2024-02-26T02:36:53;96917.06;;;5.87;100.00
45050;BME280;61798;48.048;-1.928;2024-02-26T02:39:01;96924.56;;;5.95;100.00
45050;BME280;61798;48.048;-1.928;2024-02-26T02:41:08;96908.59;;;5.90;100.00
45050;BME280;61798;48.048;-1.928;2024-02-26T02:43:15;96908.09;;;5.93;100.00
45050;BME280;61798;48.048;-1.928;2024-02-26T02:45:21;96910.75;;;5.93;100.00
45050;BME280;61798;48.048;-1.928;2024-02-26T02:47:28;96904.31;;;5.84;100.00
45050;BME280;61798;48.048;-1.928;2024-02-26T02:49:35;96927.22;;;5.95;100.00
45050;BME280;61798;48.048;-1.928;2024-02-26T02:51:42;96901.13;;;5.87;100.00
45050;BME280;61798;48.048;-1.928;2024-02-26T02:53:48;96914.19;;;5.93;100.00
45050;BME280;61798;48.048;-1.928;2024-02-26T02:55:55;96919.78;;;5.97;100.00
45050;BME280;61798;48.048;-1.928;2024-02-26T02:58:02;96907.25;;;5.87;100.00
45050;BME280;61798;48.048;-1.928;2024-02-26T03:00:10;96923.25;;;5.92;100.00
45050;BME280;61798;48.048;-1.928;2024-02-26T03:02:17;96929.88;;;5.95;100.00
45050;BME280;61798;48.048;-1.928;2024-02-26T03:04:24;96917.34;;;5.90;100.00
45050;BME280;61798;48.048;-1.928;2024-02-26T03:06:30;96922.75;;;6.01;100.00
45050;BME280;61798;48.048;-1.928;2024-02-26T03:08:36;96920.88;;;6.01;100.00
45050;BME280;61798;48.048;-1.928;2024-02-26T03:10:43;96904.88;;;5.91;100.00
45050;BME280;61798;48.048;-1.928;2024-02-26T03:12:50;96927.28;;;6.06;100.00
45050;BME280;61798;48.048;-1.928;2024-02-26T03:14:56;96918.50;;;6.00;100.00
45050;BME280;61798;48.048;-1.928;2024-02-26T03:17:01;96931.31;;;6.08;100.00
45050;BME280;61798;48.048;-1.928;2024-02-26T03:19:07;96916.66;;;6.06;100.00
45050;BME280;61798;48.048;-1.928;2024-02-26T03:21:13;96873.31;;;6.05;100.00
45050;BME280;61798;48.048;-1.928;2024-02-26T03:23:19;96848.28;;;5.90;100.00
45050;BME280;61798;48.048;-1.928;2024-02-26T03:25:26;96861.13;;;6.04;100.00
45050;BME280;61798;48.048;-1.928;2024-02-26T03:27:32;96872.03;;;6.08;100.00
45050;BME280;61798;48.048;-1.928;2024-02-26T03:29:38;96859.75;;;6.01;100.00
45050;BME280;61798;48.048;-1.928;2024-02-26T03:31:44;96869.94;;;6.10;100.00
45050;BME280;61798;48.048;-1.928;2024-02-26T03:33:50;96862.44;;;6.07;100.00
45050;BME280;61798;48.048;-1.928;2024-02-26T03:35:55;96865.41;;;6.10;100.00
45050;BME280;61798;48.048;-1.928;2024-02-26T03:38:01;96873.41;;;6.10;100.00
45050;BME280;61798;48.048;-1.928;2024-02-26T03:40:08;96873.66;;;6.09;100.00
45050;BME280;61798;48.048;-1.928;2024-02-26T03:42:14;96882.72;;;6.13;100.00
45050;BME280;61798;48.048;-1.928;2024-02-26T03:44:21;96889.63;;;6.09;100.00
45050;BME280;61798;48.048;-1.928;2024-02-26T03:46:27;96878.41;;;6.07;100.00
45050;BME280;61798;48.048;-1.928;2024-02-26T03:48:33;96880.00;;;6.08;100.00
45050;BME280;61798;48.048;-1.928;2024-02-26T03:50:39;96906.66;;;6.18;100.00
45050;BME280;61798;48.048;-1.928;2024-02-26T03:52:46;96868.53;;;5.97;100.00
45050;BME280;61798;48.048;-1.928;2024-02-26T03:54:54;96903.47;;;6.16;100.00
45050;BME280;61798;48.048;-1.928;2024-02-26T03:57:01;96897.31;;;6.10;100.00
45050;BME280;61798;48.048;-1.928;2024-02-26T03:59:08;96897.31;;;6.10;100.00
45050;BME280;61798;48.048;-1.928;2024-02-26T04:01:15;96902.97;;;6.19;100.00
45050;BME280;61798;48.048;-1.928;2024-02-26T04:03:23;96893.13;;;6.20;100.00
45050;BME280;61798;48.048;-1.928;2024-02-26T04:05:30;96897.09;;;6.17;100.00
45050;BME280;61798;48.048;-1.928;2024-02-26T04:07:37;96911.50;;;6.27;100.00
45050;BME280;61798;48.048;-1.928;2024-02-26T04:09:44;96917.38;;;6.29;100.00
45050;BME280;61798;48.048;-1.928;2024-02-26T04:11:52;96927.75;;;6.30;100.00
45050;BME280;61798;48.048;-1.928;2024-02-26T04:13:59;96892.81;;;6.11;100.00
45050;BME280;61798;48.048;-1.928;2024-02-26T04:16:06;96921.84;;;6.23;100.00
45050;BME280;61798;48.048;-1.928;2024-02-26T04:18:13;96933.06;;;6.30;100.00
45050;BME280;61798;48.048;-1.928;2024-02-26T04:20:21;96932.25;;;6.30;100.00
45050;BME280;61798;48.048;-1.928;2024-02-26T04:22:28;96937.56;;;6.30;100.00
45050;BME280;61798;48.048;-1.928;2024-02-26T04:24:36;96947.16;;;6.31;100.00
45050;BME280;61798;48.048;-1.928;2024-02-26T04:26:46;96942.59;;;6.26;100.00
45050;BME280;61798;48.048;-1.928;2024-02-26T04:28:53;96971.06;;;6.26;100.00
45050;BME280;61798;48.048;-1.928;2024-02-26T04:31:00;96975.53;;;6.20;100.00
45050;BME280;61798;48.048;-1.928;2024-02-26T04:33:07;96981.09;;;6.18;100.00
45050;BME280;61798;48.048;-1.928;2024-02-26T04:35:14;96975.94;;;6.06;100.00
45050;BME280;61798;48.048;-1.928;2024-02-26T04:37:21;97005.25;;;6.11;100.00
45050;BME280;61798;48.048;-1.928;2024-02-26T04:39:28;97001.72;;;6.06;100.00
45050;BME280;61798;48.048;-1.928;2024-02-26T04:41:35;97013.91;;;6.01;100.00
45050;BME280;61798;48.048;-1.928;2024-02-26T04:43:42;97010.97;;;5.98;100.00
45050;BME280;61798;48.048;-1.928;2024-02-26T04:45:49;97020.50;;;5.93;100.00
45050;BME280;61798;48.048;-1.928;2024-02-26T04:47:57;97017.75;;;5.83;100.00
45050;BME280;61798;48.048;-1.928;2024-02-26T04:50:05;97021.75;;;5.86;100.00
45050;BME280;61798;48.048;-1.928;2024-02-26T04:52:12;97037.22;;;5.89;100.00
45050;BME280;61798;48.048;-1.928;2024-02-26T04:54:19;97044.69;;;5.92;100.00
45050;BME280;61798;48.048;-1.928;2024-02-26T04:56:26;97040.34;;;5.86;100.00
45050;BME280;61798;48.048;-1.928;2024-02-26T04:58:33;97039.22;;;5.76;100.00
45050;BME280;61798;48.048;-1.928;2024-02-26T05:00:40;97047.84;;;5.89;100.00
45050;BME280;61798;48.048;-1.928;2024-02-26T05:02:47;97052.06;;;5.85;100.00
45050;BME280;61798;48.048;-1.928;2024-02-26T05:04:56;97065.66;;;5.88;100.00
45050;BME280;61798;48.048;-1.928;2024-02-26T05:07:03;97062.41;;;5.86;100.00
45050;BME280;61798;48.048;-1.928;2024-02-26T05:09:11;97079.72;;;5.89;100.00
45050;BME280;61798;48.048;-1.928;2024-02-26T05:11:18;97069.59;;;5.86;100.00
45050;BME280;61798;48.048;-1.928;2024-02-26T05:13:25;97063.13;;;5.76;100.00
45050;BME280;61798;48.048;-1.928;2024-02-26T05:15:32;97085.81;;;5.89;100.00
45050;BME280;61798;48.048;-1.928;2024-02-26T05:17:39;97087.94;;;5.87;100.00
45050;BME280;61798;48.048;-1.928;2024-02-26T05:19:46;97087.72;;;5.89;100.00
45050;BME280;61798;48.048;-1.928;2024-02-26T05:21:52;97096.78;;;5.93;100.00
45050;BME280;61798;48.048;-1.928;2024-02-26T05:23:59;97106.84;;;5.91;100.00
45050;BME280;61798;48.048;-1.928;2024-02-26T05:26:06;97098.34;;;5.89;100.00
45050;BME280;61798;48.048;-1.928;2024-02-26T05:28:14;97112.16;;;5.91;100.00
45050;BME280;61798;48.048;-1.928;2024-02-26T05:30:22;97120.69;;;5.93;100.00
45050;BME280;61798;48.048;-1.928;2024-02-26T05:32:29;97117.97;;;5.88;100.00
45050;BME280;61798;48.048;-1.928;2024-02-26T05:34:36;97133.19;;;5.92;100.00
45050;BME280;61798;48.048;-1.928;2024-02-26T05:36:44;97123.75;;;5.79;100.00
45050;BME280;61798;48.048;-1.928;2024-02-26T05:38:50;97148.63;;;5.96;100.00
45050;BME280;61798;48.048;-1.928;2024-02-26T05:40:58;97142.44;;;5.90;100.00
45050;BME280;61798;48.048;-1.928;2024-02-26T05:43:08;97150.41;;;5.90;100.00
45050;BME280;61798;48.048;-1.928;2024-02-26T05:45:15;97137.31;;;5.83;100.00
45050;BME280;61798;48.048;-1.928;2024-02-26T05:47:22;97169.63;;;5.97;100.00
45050;BME280;61798;48.048;-1.928;2024-02-26T05:49:28;97171.75;;;5.95;100.00
45050;BME280;61798;48.048;-1.928;2024-02-26T05:51:35;97183.19;;;5.96;100.00
45050;BME280;61798;48.048;-1.928;2024-02-26T05:53:41;97195.91;;;5.93;100.00
45050;BME280;61798;48.048;-1.928;2024-02-26T05:55:48;97176.66;;;5.81;100.00
45050;BME280;61798;48.048;-1.928;2024-02-26T05:57:54;97199.19;;;5.78;100.00
45050;BME280;61798;48.048;-1.928;2024-02-26T06:00:01;97193.19;;;5.66;100.00
45050;BME280;61798;48.048;-1.928;2024-02-26T06:02:09;97216.75;;;5.79;100.00
45050;BME280;61798;48.048;-1.928;2024-02-26T06:04:20;97226.88;;;5.82;100.00
45050;BME280;61798;48.048;-1.928;2024-02-26T06:06:26;97228.84;;;5.70;100.00
45050;BME280;61798;48.048;-1.928;2024-02-26T06:08:32;97234.47;;;5.74;100.00
45050;BME280;61798;48.048;-1.928;2024-02-26T06:10:39;97246.63;;;5.69;100.00
45050;BME280;61798;48.048;-1.928;2024-02-26T06:12:45;97255.97;;;5.72;100.00
45050;BME280;61798;48.048;-1.928;2024-02-26T06:14:50;97271.66;;;5.74;100.00
45050;BME280;61798;48.048;-1.928;2024-02-26T06:16:56;97259.28;;;5.62;100.00
45050;BME280;61798;48.048;-1.928;2024-02-26T06:19:02;97274.00;;;5.70;100.00
45050;BME280;61798;48.048;-1.928;2024-02-26T06:21:11;97270.72;;;5.63;100.00
45050;BME280;61798;48.048;-1.928;2024-02-26T06:23:17;97279.19;;;5.59;100.00
45050;BME280;61798;48.048;-1.928;2024-02-26T06:25:23;97289.22;;;5.57;100.00
45050;BME280;61798;48.048;-1.928;2024-02-26T06:27:30;97305.97;;;5.58;100.00
45050;BME280;61798;48.048;-1.928;2024-02-26T06:29:37;97318.22;;;5.59;100.00
45050;BME280;61798;48.048;-1.928;2024-02-26T06:31:46;97286.34;;;5.42;100.00
45050;BME280;61798;48.048;-1.928;2024-02-26T06:33:55;97328.59;;;5.60;100.00
45050;BME280;61798;48.048;-1.928;2024-02-26T06:36:02;97313.31;;;5.50;100.00
45050;BME280;61798;48.048;-1.928;2024-02-26T06:38:11;97330.63;;;5.53;100.00
45050;BME280;61798;48.048;-1.928;2024-02-26T06:40:19;97334.50;;;5.45;100.00
45050;BME280;61798;48.048;-1.928;2024-02-26T06:42:25;97328.19;;;5.52;100.00
45050;BME280;61798;48.048;-1.928;2024-02-26T06:44:31;97367.94;;;5.46;100.00
45050;BME280;61798;48.048;-1.928;2024-02-26T06:46:39;97357.59;;;5.45;100.00
45050;BME280;61798;48.048;-1.928;2024-02-26T06:48:45;97362.72;;;5.34;100.00
45050;BME280;61798;48.048;-1.928;2024-02-26T06:50:51;97364.91;;;5.37;100.00
45050;BME280;61798;48.048;-1.928;2024-02-26T06:52:57;97381.81;;;5.48;100.00
45050;BME280;61798;48.048;-1.928;2024-02-26T06:55:03;97411.75;;;5.44;100.00
45050;BME280;61798;48.048;-1.928;2024-02-26T06:57:08;97413.03;;;5.41;100.00
45050;BME280;61798;48.048;-1.928;2024-02-26T06:59:14;97394.84;;;5.33;100.00
45050;BME280;61798;48.048;-1.928;2024-02-26T07:01:20;97416.72;;;5.40;100.00
45050;BME280;61798;48.048;-1.928;2024-02-26T07:03:26;97425.31;;;5.30;100.00
45050;BME280;61798;48.048;-1.928;2024-02-26T07:05:32;97418.19;;;5.18;100.00
45050;BME280;61798;48.048;-1.928;2024-02-26T07:07:38;97450.06;;;5.18;100.00
45050;BME280;61798;48.048;-1.928;2024-02-26T07:09:44;97470.31;;;5.37;100.00
45050;BME280;61798;48.048;-1.928;2024-02-26T07:11:49;97470.44;;;5.30;100.00
45050;BME280;61798;48.048;-1.928;2024-02-26T07:13:55;97481.41;;;5.34;100.00
45050;BME280;61798;48.048;-1.928;2024-02-26T07:16:01;97475.91;;;5.23;100.00
45050;BME280;61798;48.048;-1.928;2024-02-26T07:18:07;97497.47;;;5.27;100.00
45050;BME280;61798;48.048;-1.928;2024-02-26T07:20:13;97519.75;;;5.26;100.00
45050;BME280;61798;48.048;-1.928;2024-02-26T07:22:20;97524.03;;;5.27;100.00
45050;BME280;61798;48.048;-1.928;2024-02-26T07:24:26;97520.47;;;5.21;100.00
45050;BME280;61798;48.048;-1.928;2024-02-26T07:26:31;97532.84;;;5.03;100.00
45050;BME280;61798;48.048;-1.928;2024-02-26T07:28:37;97601.03;;;5.27;100.00
45050;BME280;61798;48.048;-1.928;2024-02-26T07:30:43;97579.00;;;5.14;100.00
45050;BME280;61798;48.048;-1.928;2024-02-26T07:32:49;97610.75;;;5.21;100.00
45050;BME280;61798;48.048;-1.928;2024-02-26T07:34:55;97620.56;;;5.21;100.00
45050;BME280;61798;48.048;-1.928;2024-02-26T07:37:01;97634.88;;;5.20;100.00
45050;BME280;61798;48.048;-1.928;2024-02-26T07:39:06;97656.56;;;5.16;100.00
45050;BME280;61798;48.048;-1.928;2024-02-26T07:41:12;97672.38;;;5.11;100.00
45050;BME280;61798;48.048;-1.928;2024-02-26T07:43:18;97641.91;;;5.02;100.00
45050;BME280;61798;48.048;-1.928;2024-02-26T07:45:24;97672.03;;;5.07;100.00
45050;BME280;61798;48.048;-1.928;2024-02-26T07:47:30;97674.47;;;5.09;100.00
45050;BME280;61798;48.048;-1.928;2024-02-26T07:49:36;97669.50;;;5.01;100.00
45050;BME280;61798;48.048;-1.928;2024-02-26T07:51:42;97700.75;;;4.99;100.00
45050;BME280;61798;48.048;-1.928;2024-02-26T07:53:47;97857.09;;;4.88;100.00
45050;BME280;61798;48.048;-1.928;2024-02-26T07:55:53;97874.75;;;4.94;100.00
45050;BME280;61798;48.048;-1.928;2024-02-26T07:57:59;97900.25;;;4.95;100.00
45050;BME280;61798;48.048;-1.928;2024-02-26T08:00:06;97904.69;;;4.83;100.00
45050;BME280;61798;48.048;-1.928;2024-02-26T08:02:15;97879.06;;;4.76;100.00
45050;BME280;61798;48.048;-1.928;2024-02-26T08:04:21;97938.44;;;4.94;100.00
45050;BME280;61798;48.048;-1.928;2024-02-26T08:06:27;97951.72;;;4.94;100.00
45050;BME280;61798;48.048;-1.928;2024-02-26T08:08:33;97947.16;;;4.83;100.00
45050;BME280;61798;48.048;-1.928;2024-02-26T08:10:39;97937.66;;;4.75;100.00
45050;BME280;61798;48.048;-1.928;2024-02-26T08:12:45;97969.72;;;4.92;100.00
45050;BME280;61798;48.048;-1.928;2024-02-26T08:14:51;97974.44;;;4.90;100.00
45050;BME280;61798;48.048;-1.928;2024-02-26T08:16:56;97997.00;;;5.00;100.00
45050;BME280;61798;48.048;-1.928;2024-02-26T08:19:02;97998.25;;;4.97;100.00
45050;BME280;61798;48.048;-1.928;2024-02-26T08:21:08;98003.41;;;4.92;100.00
45050;BME280;61798;48.048;-1.928;2024-02-26T08:23:14;97982.56;;;4.76;100.00
45050;BME280;61798;48.048;-1.928;2024-02-26T08:25:20;97980.41;;;4.85;100.00
45050;BME280;61798;48.048;-1.928;2024-02-26T08:27:25;98022.88;;;5.04;100.00
45050;BME280;61798;48.048;-1.928;2024-02-26T08:29:31;98047.50;;;5.12;100.00
45050;BME280;61798;48.048;-1.928;2024-02-26T08:31:37;98022.66;;;4.87;100.00
45050;BME280;61798;48.048;-1.928;2024-02-26T08:33:43;98035.50;;;5.09;100.00
45050;BME280;61798;48.048;-1.928;2024-02-26T08:35:49;98067.06;;;5.17;100.00
45050;BME280;61798;48.048;-1.928;2024-02-26T08:37:54;98070.00;;;5.09;100.00
45050;BME280;61798;48.048;-1.928;2024-02-26T08:40:01;98062.69;;;5.04;100.00
45050;BME280;61798;48.048;-1.928;2024-02-26T08:42:06;98095.44;;;5.17;100.00
45050;BME280;61798;48.048;-1.928;2024-02-26T08:44:12;98091.97;;;5.16;100.00
45050;BME280;61798;48.048;-1.928;2024-02-26T08:46:18;98096.09;;;5.12;100.00
45050;BME280;61798;48.048;-1.928;2024-02-26T08:48:24;98104.06;;;5.12;100.00
45050;BME280;61798;48.048;-1.928;2024-02-26T08:50:30;98112.03;;;5.12;100.00
45050;BME280;61798;48.048;-1.928;2024-02-26T08:52:36;98139.69;;;5.23;100.00
45050;BME280;61798;48.048;-1.928;2024-02-26T08:54:42;98122.72;;;5.05;100.00
45050;BME280;61798;48.048;-1.928;2024-02-26T08:56:48;98146.19;;;5.27;100.00
45050;BME280;61798;48.048;-1.928;2024-02-26T08:58:53;98161.31;;;5.27;100.00
45050;BME280;61798;48.048;-1.928;2024-02-26T09:01:02;98156.22;;;5.25;100.00
45050;BME280;61798;48.048;-1.928;2024-02-26T09:03:08;98139.81;;;5.10;100.00
45050;BME280;61798;48.048;-1.928;2024-02-26T09:05:13;98170.75;;;5.23;100.00
45050;BME280;61798;48.048;-1.928;2024-02-26T09:07:19;98183.06;;;5.17;100.00
45050;BME280;61798;48.048;-1.928;2024-02-26T09:09:25;98186.69;;;5.23;100.00
45050;BME280;61798;48.048;-1.928;2024-02-26T09:11:32;98192.50;;;5.13;100.00
45050;BME280;61798;48.048;-1.928;2024-02-26T09:13:37;98185.03;;;5.22;100.00
45050;BME280;61798;48.048;-1.928;2024-02-26T09:15:43;98194.25;;;5.19;100.00
45050;BME280;61798;48.048;-1.928;2024-02-26T09:17:49;98191.06;;;5.10;100.00
45050;BME280;61798;48.048;-1.928;2024-02-26T09:19:55;98236.41;;;5.34;100.00
45050;BME280;61798;48.048;-1.928;2024-02-26T09:22:01;98243.03;;;5.25;100.00
45050;BME280;61798;48.048;-1.928;2024-02-26T09:24:07;98240.22;;;5.20;100.00
45050;BME280;61798;48.048;-1.928;2024-02-26T09:26:13;98267.09;;;5.30;100.00
45050;BME280;61798;48.048;-1.928;2024-02-26T09:28:19;98284.81;;;5.36;100.00
45050;BME280;61798;48.048;-1.928;2024-02-26T09:30:24;98265.84;;;5.33;100.00
45050;BME280;61798;48.048;-1.928;2024-02-26T09:32:30;98267.59;;;5.20;100.00
45050;BME280;61798;48.048;-1.928;2024-02-26T09:34:36;98291.66;;;5.25;100.00
45050;BME280;61798;48.048;-1.928;2024-02-26T09:36:43;98315.25;;;5.41;100.00
45050;BME280;61798;48.048;-1.928;2024-02-26T09:38:48;98303.78;;;5.14;100.00
45050;BME280;61798;48.048;-1.928;2024-02-26T09:40:54;98318.34;;;5.37;100.00
45050;BME280;61798;48.048;-1.928;2024-02-26T09:43:00;98349.97;;;5.39;100.00
45050;BME280;61798;48.048;-1.928;2024-02-26T09:45:09;98364.25;;;5.45;100.00
45050;BME280;61798;48.048;-1.928;2024-02-26T09:47:17;98365.72;;;5.41;100.00
45050;BME280;61798;48.048;-1.928;2024-02-26T09:49:26;98373.28;;;5.37;100.00
45050;BME280;61798;48.048;-1.928;2024-02-26T09:51:32;98372.22;;;5.45;100.00
45050;BME280;61798;48.048;-1.928;2024-02-26T09:53:39;98385.00;;;5.55;100.00
45050;BME280;61798;48.048;-1.928;2024-02-26T09:55:49;98384.50;;;5.39;100.00
45050;BME280;61798;48.048;-1.928;2024-02-26T09:57:56;98403.03;;;5.53;100.00
45050;BME280;61798;48.048;-1.928;2024-02-26T10:00:04;98361.72;;;5.24;100.00
45050;BME280;61798;48.048;-1.928;2024-02-26T10:02:14;98408.50;;;5.25;100.00
45050;BME280;61798;48.048;-1.928;2024-02-26T10:04:21;98404.41;;;5.23;100.00
45050;BME280;61798;48.048;-1.928;2024-02-26T10:06:27;98404.41;;;5.23;100.00
45050;BME280;61798;48.048;-1.928;2024-02-26T10:08:35;98460.34;;;5.35;100.00
45050;BME280;61798;48.048;-1.928;2024-02-26T10:10:41;98436.66;;;5.33;100.00
45050;BME280;61798;48.048;-1.928;2024-02-26T10:12:47;98452.44;;;5.21;100.00
45050;BME280;61798;48.048;-1.928;2024-02-26T10:14:53;98462.78;;;5.36;100.00
45050;BME280;61798;48.048;-1.928;2024-02-26T10:16:59;98432.13;;;5.41;100.00
45050;BME280;61798;48.048;-1.928;2024-02-26T10:19:08;98458.09;;;5.32;100.00
45050;BME280;61798;48.048;-1.928;2024-02-26T10:21:19;98486.25;;;5.39;100.00
45050;BME280;61798;48.048;-1.928;2024-02-26T10:23:26;98501.19;;;5.41;100.00
45050;BME280;61798;48.048;-1.928;2024-02-26T10:25:31;98510.16;;;5.39;100.00
45050;BME280;61798;48.048;-1.928;2024-02-26T10:27:38;98521.22;;;5.36;100.00
45050;BME280;61798;48.048;-1.928;2024-02-26T10:29:45;98535.31;;;5.30;100.00
45050;BME280;61798;48.048;-1.928;2024-02-26T10:31:53;98531.00;;;5.43;100.00
45050;BME280;61798;48.048;-1.928;2024-02-26T10:33:59;98526.53;;;5.36;100.00
45050;BME280;61798;48.048;-1.928;2024-02-26T10:36:05;98568.59;;;5.39;100.00
45050;BME280;61798;48.048;-1.928;2024-02-26T10:38:12;98537.16;;;5.36;100.00
45050;BME280;61798;48.048;-1.928;2024-02-26T10:40:18;98533.13;;;5.20;100.00
45050;BME280;61798;48.048;-1.928;2024-02-26T10:42:25;98573.06;;;5.46;100.00
45050;BME280;61798;48.048;-1.928;2024-02-26T10:44:31;98574.53;;;5.35;100.00
45050;BME280;61798;48.048;-1.928;2024-02-26T10:46:37;98613.47;;;5.61;100.00
45050;BME280;61798;48.048;-1.928;2024-02-26T10:48:53;98614.56;;;5.47;100.00
45050;BME280;61798;48.048;-1.928;2024-02-26T10:50:59;98623.94;;;5.49;100.00
45050;BME280;61798;48.048;-1.928;2024-02-26T10:53:28;98645.59;;;5.60;100.00
45050;BME280;61798;48.048;-1.928;2024-02-26T10:55:34;98652.38;;;5.49;100.00
45050;BME280;61798;48.048;-1.928;2024-02-26T10:57:44;98656.03;;;5.48;100.00
45050;BME280;61798;48.048;-1.928;2024-02-26T10:59:51;98658.72;;;5.41;100.00
45050;BME280;61798;48.048;-1.928;2024-02-26T11:01:59;98664.91;;;5.21;100.00
45050;BME280;61798;48.048;-1.928;2024-02-26T11:04:06;98672.81;;;5.35;100.00